Terminal Aerodrome Forecast
Issued by NWS

Home | Current Version | Previous Version | Text Only | Print | Product List | Glossary On
Versions: 1 2 3 4 5 6 7 8 9 10 11 12 13
029
FTUS43 KEAX 232321
TAFSTJ
TAF
KSTJ 232321Z 2400/2424 18015KT P6SM SCT250
     FM240300 17014KT P6SM SCT200 WS020/19045KT
     FM241200 17014KT P6SM VCSH BKN120
     FM241800 18011KT P6SM BKN035=

USA.gov is the U.S. government's official web portal to all federal, state and local government web resources and services.